sensor_id;sensor_type;location;lat;lon;timestamp;P1;P4;P2;P0;N10;N4;N25;N1;N05;TS
44530;SPS30;30240;47.418;0.700;2023-07-22T00:02:18;3.9194038;;3.8769605;;;;;;;
44530;SPS30;30240;47.418;0.700;2023-07-22T00:04:43;3.5637043;;3.5385432;;;;;;;
44530;SPS30;30240;47.418;0.700;2023-07-22T00:07:08;4.155562;;4.1192136;;;;;;;
44530;SPS30;30240;47.418;0.700;2023-07-22T00:09:33;3.6467695;;3.6255176;;;;;;;
44530;SPS30;30240;47.418;0.700;2023-07-22T00:11:58;4.0761986;;4.0530767;;;;;;;
44530;SPS30;30240;47.418;0.700;2023-07-22T00:14:23;4.0761986;;4.0530767;;;;;;;
44530;SPS30;30240;47.418;0.700;2023-07-22T00:16:48;3.5583363;;3.5432308;;;;;;;
44530;SPS30;30240;47.418;0.700;2023-07-22T00:19:13;3.7236261;;3.69615;;;;;;;
44530;SPS30;30240;47.418;0.700;2023-07-22T00:21:38;4.121518;;4.074635;;;;;;;
44530;SPS30;30240;47.418;0.700;2023-07-22T00:24:03;3.6285112;;3.5687149;;;;;;;
44530;SPS30;30240;47.418;0.700;2023-07-22T00:26:28;3.6285112;;3.5687149;;;;;;;
44530;SPS30;30240;47.418;0.700;2023-07-22T00:28:53;3.9946404;;3.915883;;;;;;;
44530;SPS30;30240;47.418;0.700;2023-07-22T00:31:18;4.6674566;;4.5796084;;;;;;;
44530;SPS30;30240;47.418;0.700;2023-07-22T00:33:43;3.9970572;;3.8969831;;;;;;;
44530;SPS30;30240;47.418;0.700;2023-07-22T00:36:08;3.642729;;3.5678067;;;;;;;
44530;SPS30;30240;47.418;0.700;2023-07-22T00:38:33;3.950459;;3.9032605;;;;;;;
44530;SPS30;30240;47.418;0.700;2023-07-22T00:40:58;3.950459;;3.9032605;;;;;;;
44530;SPS30;30240;47.418;0.700;2023-07-22T00:43:23;3.6405342;;3.5877738;;;;;;;
44530;SPS30;30240;47.418;0.700;2023-07-22T00:45:48;3.8394608;;3.8084157;;;;;;;
44530;SPS30;30240;47.418;0.700;2023-07-22T00:48:13;4.1986184;;4.1854477;;;;;;;
44530;SPS30;30240;47.418;0.700;2023-07-22T00:50:38;4.061208;;4.015924;;;;;;;
44530;SPS30;30240;47.418;0.700;2023-07-22T00:53:03;4.061208;;4.015924;;;;;;;
44530;SPS30;30240;47.418;0.700;2023-07-22T00:55:28;3.914736;;3.8890388;;;;;;;
44530;SPS30;30240;47.418;0.700;2023-07-22T00:57:54;3.7232633;;3.6434019;;;;;;;
44530;SPS30;30240;47.418;0.700;2023-07-22T01:00:18;3.8872988;;3.8245704;;;;;;;
44530;SPS30;30240;47.418;0.700;2023-07-22T01:02:43;4.1406565;;4.0361395;;;;;;;
44530;SPS30;30240;47.418;0.700;2023-07-22T01:05:08;4.1406565;;4.0361395;;;;;;;
44530;SPS30;30240;47.418;0.700;2023-07-22T01:07:34;4.314683;;4.2738385;;;;;;;
44530;SPS30;30240;47.418;0.700;2023-07-22T01:09:58;3.9927566;;3.9834254;;;;;;;
44530;SPS30;30240;47.418;0.700;2023-07-22T01:12:23;4.185593;;4.1524405;;;;;;;
44530;SPS30;30240;47.418;0.700;2023-07-22T01:14:48;4.220557;;4.160582;;;;;;;
44530;SPS30;30240;47.418;0.700;2023-07-22T01:17:13;4.220557;;4.160582;;;;;;;
44530;SPS30;30240;47.418;0.700;2023-07-22T01:19:38;3.9773154;;3.9547033;;;;;;;
44530;SPS30;30240;47.418;0.700;2023-07-22T01:22:04;3.6851768;;3.6520822;;;;;;;
44530;SPS30;30240;47.418;0.700;2023-07-22T01:24:29;3.7212386;;3.7042127;;;;;;;
44530;SPS30;30240;47.418;0.700;2023-07-22T01:26:53;3.981385;;3.9378417;;;;;;;
44530;SPS30;30240;47.418;0.700;2023-07-22T01:29:18;3.981385;;3.9378417;;;;;;;
44530;SPS30;30240;47.418;0.700;2023-07-22T01:31:47;4.766676;;4.685479;;;;;;;
44530;SPS30;30240;47.418;0.700;2023-07-22T01:34:09;5.0020146;;4.895705;;;;;;;
44530;SPS30;30240;47.418;0.700;2023-07-22T01:36:34;4.1287427;;4.101672;;;;;;;
44530;SPS30;30240;47.418;0.700;2023-07-22T01:38:59;4.9200935;;4.870037;;;;;;;
44530;SPS30;30240;47.418;0.700;2023-07-22T01:41:24;4.9200935;;4.870037;;;;;;;
44530;SPS30;30240;47.418;0.700;2023-07-22T01:43:49;4.119991;;4.101815;;;;;;;
44530;SPS30;30240;47.418;0.700;2023-07-22T01:46:13;3.8080719;;3.7770624;;;;;;;
44530;SPS30;30240;47.418;0.700;2023-07-22T01:48:38;4.1172;;4.0917716;;;;;;;
44530;SPS30;30240;47.418;0.700;2023-07-22T01:51:03;4.544468;;4.4639273;;;;;;;
44530;SPS30;30240;47.418;0.700;2023-07-22T01:53:29;4.544468;;4.4639273;;;;;;;
44530;SPS30;30240;47.418;0.700;2023-07-22T01:55:53;4.393362;;4.3666983;;;;;;;
44530;SPS30;30240;47.418;0.700;2023-07-22T01:58:19;4.163956;;4.1381927;;;;;;;
44530;SPS30;30240;47.418;0.700;2023-07-22T02:00:43;4.2071133;;4.161221;;;;;;;
44530;SPS30;30240;47.418;0.700;2023-07-22T02:03:08;4.60326;;4.5266294;;;;;;;
44530;SPS30;30240;47.418;0.700;2023-07-22T02:05:33;4.60326;;4.5266294;;;;;;;
44530;SPS30;30240;47.418;0.700;2023-07-22T02:07:58;4.3636403;;4.3304462;;;;;;;
44530;SPS30;30240;47.418;0.700;2023-07-22T02:10:23;4.2958746;;4.27215;;;;;;;
44530;SPS30;30240;47.418;0.700;2023-07-22T02:12:48;4.424397;;4.362224;;;;;;;
44530;SPS30;30240;47.418;0.700;2023-07-22T02:15:13;4.738938;;4.7151084;;;;;;;
44530;SPS30;30240;47.418;0.700;2023-07-22T02:17:38;4.6710134;;4.638614;;;;;;;
44530;SPS30;30240;47.418;0.700;2023-07-22T02:20:04;4.6710134;;4.638614;;;;;;;
44530;SPS30;30240;47.418;0.700;2023-07-22T02:22:28;4.6997066;;4.6421742;;;;;;;
44530;SPS30;30240;47.418;0.700;2023-07-22T02:24:53;5.039553;;4.996215;;;;;;;
44530;SPS30;30240;47.418;0.700;2023-07-22T02:27:18;4.0950046;;4.0585117;;;;;;;
44530;SPS30;30240;47.418;0.700;2023-07-22T02:29:43;5.326925;;5.2930894;;;;;;;
44530;SPS30;30240;47.418;0.700;2023-07-22T02:32:08;5.326925;;5.2930894;;;;;;;
44530;SPS30;30240;47.418;0.700;2023-07-22T02:34:33;4.822262;;4.8221865;;;;;;;
44530;SPS30;30240;47.418;0.700;2023-07-22T02:36:58;4.821046;;4.8167534;;;;;;;
44530;SPS30;30240;47.418;0.700;2023-07-22T02:39:23;4.876754;;4.837432;;;;;;;
44530;SPS30;30240;47.418;0.700;2023-07-22T02:41:48;3.9364088;;3.9063914;;;;;;;
44530;SPS30;30240;47.418;0.700;2023-07-22T02:44:13;3.9364088;;3.9063914;;;;;;;
44530;SPS30;30240;47.418;0.700;2023-07-22T02:46:38;4.694114;;4.667329;;;;;;;
44530;SPS30;30240;47.418;0.700;2023-07-22T02:49:03;4.6141596;;4.5778456;;;;;;;
44530;SPS30;30240;47.418;0.700;2023-07-22T02:51:28;4.36631;;4.3285384;;;;;;;
44530;SPS30;30240;47.418;0.700;2023-07-22T02:53:53;4.275033;;4.2348566;;;;;;;
44530;SPS30;30240;47.418;0.700;2023-07-22T02:56:18;4.275033;;4.2348566;;;;;;;
44530;SPS30;30240;47.418;0.700;2023-07-22T02:58:43;4.748674;;4.693757;;;;;;;
44530;SPS30;30240;47.418;0.700;2023-07-22T03:01:09;4.551892;;4.502352;;;;;;;
44530;SPS30;30240;47.418;0.700;2023-07-22T03:03:33;4.8798413;;4.8144474;;;;;;;
44530;SPS30;30240;47.418;0.700;2023-07-22T03:05:58;4.60608;;4.5298657;;;;;;;
44530;SPS30;30240;47.418;0.700;2023-07-22T03:08:23;4.60608;;4.5298657;;;;;;;
44530;SPS30;30240;47.418;0.700;2023-07-22T03:10:48;4.7189603;;4.6469364;;;;;;;
44530;SPS30;30240;47.418;0.700;2023-07-22T03:13:14;4.378655;;4.298676;;;;;;;
44530;SPS30;30240;47.418;0.700;2023-07-22T03:15:38;4.273481;;4.2245483;;;;;;;
44530;SPS30;30240;47.418;0.700;2023-07-22T03:18:03;4.966354;;4.9095707;;;;;;;
44530;SPS30;30240;47.418;0.700;2023-07-22T03:20:28;4.966354;;4.9095707;;;;;;;
44530;SPS30;30240;47.418;0.700;2023-07-22T03:22:53;5.1239896;;5.035559;;;;;;;
44530;SPS30;30240;47.418;0.700;2023-07-22T03:25:19;4.5079837;;4.4306245;;;;;;;
44530;SPS30;30240;47.418;0.700;2023-07-22T03:27:44;4.7994733;;4.7311373;;;;;;;
44530;SPS30;30240;47.418;0.700;2023-07-22T03:30:11;4.806988;;4.752358;;;;;;;
44530;SPS30;30240;47.418;0.700;2023-07-22T03:32:34;4.806988;;4.752358;;;;;;;
44530;SPS30;30240;47.418;0.700;2023-07-22T03:34:58;5.0092688;;4.922999;;;;;;;
44530;SPS30;30240;47.418;0.700;2023-07-22T03:37:23;4.933307;;4.8685465;;;;;;;
44530;SPS30;30240;47.418;0.700;2023-07-22T03:39:48;4.934399;;4.906498;;;;;;;
44530;SPS30;30240;47.418;0.700;2023-07-22T03:42:13;4.7764544;;4.744581;;;;;;;
44530;SPS30;30240;47.418;0.700;2023-07-22T03:44:38;4.840645;;4.7275085;;;;;;;
44530;SPS30;30240;47.418;0.700;2023-07-22T03:47:04;4.840645;;4.7275085;;;;;;;
44530;SPS30;30240;47.418;0.700;2023-07-22T03:49:28;5.0266356;;4.958656;;;;;;;
44530;SPS30;30240;47.418;0.700;2023-07-22T03:51:53;5.197405;;5.132446;;;;;;;
44530;SPS30;30240;47.418;0.700;2023-07-22T03:54:18;4.9263844;;4.8231397;;;;;;;
44530;SPS30;30240;47.418;0.700;2023-07-22T03:56:43;4.7049294;;4.6367006;;;;;;;
44530;SPS30;30240;47.418;0.700;2023-07-22T03:59:08;4.7049294;;4.6367006;;;;;;;
44530;SPS30;30240;47.418;0.700;2023-07-22T04:01:33;4.652959;;4.6076746;;;;;;;
44530;SPS30;30240;47.418;0.700;2023-07-22T04:03:58;4.677495;;4.614529;;;;;;;
44530;SPS30;30240;47.418;0.700;2023-07-22T04:06:23;4.9007187;;4.829113;;;;;;;
44530;SPS30;30240;47.418;0.700;2023-07-22T04:08:48;5.2895236;;5.2025356;;;;;;;
44530;SPS30;30240;47.418;0.700;2023-07-22T04:11:13;5.2895236;;5.2025356;;;;;;;
44530;SPS30;30240;47.418;0.700;2023-07-22T04:13:39;5.691885;;5.6030693;;;;;;;
44530;SPS30;30240;47.418;0.700;2023-07-22T04:16:04;5.3699174;;5.29494;;;;;;;
44530;SPS30;30240;47.418;0.700;2023-07-22T04:18:28;4.9231973;;4.82778;;;;;;;
44530;SPS30;30240;47.418;0.700;2023-07-22T04:20:55;4.9918294;;4.8958054;;;;;;;
44530;SPS30;30240;47.418;0.700;2023-07-22T04:23:18;4.9918294;;4.8958054;;;;;;;
44530;SPS30;30240;47.418;0.700;2023-07-22T04:25:44;5.0821147;;4.978328;;;;;;;
44530;SPS30;30240;47.418;0.700;2023-07-22T04:28:09;5.483664;;5.3960447;;;;;;;
44530;SPS30;30240;47.418;0.700;2023-07-22T04:30:33;4.7738237;;4.6810064;;;;;;;
44530;SPS30;30240;47.418;0.700;2023-07-22T04:32:58;5.51975;;5.4339237;;;;;;;
44530;SPS30;30240;47.418;0.700;2023-07-22T04:35:23;5.51975;;5.4339237;;;;;;;
44530;SPS30;30240;47.418;0.700;2023-07-22T04:37:48;5.2083306;;5.1534476;;;;;;;
44530;SPS30;30240;47.418;0.700;2023-07-22T04:40:13;5.237371;;5.1676874;;;;;;;
44530;SPS30;30240;47.418;0.700;2023-07-22T04:42:38;4.9148536;;4.836222;;;;;;;
44530;SPS30;30240;47.418;0.700;2023-07-22T04:45:04;6.154193;;6.1001663;;;;;;;
44530;SPS30;30240;47.418;0.700;2023-07-22T04:47:28;6.154193;;6.1001663;;;;;;;
44530;SPS30;30240;47.418;0.700;2023-07-22T04:49:53;5.7527313;;5.695297;;;;;;;
44530;SPS30;30240;47.418;0.700;2023-07-22T04:52:18;5.667042;;5.594058;;;;;;;
44530;SPS30;30240;47.418;0.700;2023-07-22T04:54:43;4.4143414;;4.376709;;;;;;;
44530;SPS30;30240;47.418;0.700;2023-07-22T04:57:08;5.7748814;;5.7208786;;;;;;;
44530;SPS30;30240;47.418;0.700;2023-07-22T04:59:33;5.7748814;;5.7208786;;;;;;;
44530;SPS30;30240;47.418;0.700;2023-07-22T05:01:58;5.674064;;5.607525;;;;;;;
44530;SPS30;30240;47.418;0.700;2023-07-22T05:04:23;5.5721436;;5.5015235;;;;;;;
44530;SPS30;30240;47.418;0.700;2023-07-22T05:06:48;5.527898;;5.4606833;;;;;;;
44530;SPS30;30240;47.418;0.700;2023-07-22T05:09:13;5.3373694;;5.25993;;;;;;;
44530;SPS30;30240;47.418;0.700;2023-07-22T05:11:38;5.3373694;;5.25993;;;;;;;
44530;SPS30;30240;47.418;0.700;2023-07-22T05:14:03;5.359837;;5.2689548;;;;;;;
44530;SPS30;30240;47.418;0.700;2023-07-22T05:16:28;6.0683465;;5.9638033;;;;;;;
44530;SPS30;30240;47.418;0.700;2023-07-22T05:18:53;4.811594;;4.753154;;;;;;;
44530;SPS30;30240;47.418;0.700;2023-07-22T05:21:18;5.2066164;;5.1147203;;;;;;;
44530;SPS30;30240;47.418;0.700;2023-07-22T05:23:43;4.983479;;4.9155946;;;;;;;
44530;SPS30;30240;47.418;0.700;2023-07-22T05:26:08;4.983479;;4.9155946;;;;;;;
44530;SPS30;30240;47.418;0.700;2023-07-22T05:28:33;5.019231;;4.9776826;;;;;;;
44530;SPS30;30240;47.418;0.700;2023-07-22T05:30:58;5.788785;;5.709278;;;;;;;
44530;SPS30;30240;47.418;0.700;2023-07-22T05:33:23;5.169121;;5.1206;;;;;;;
44530;SPS30;30240;47.418;0.700;2023-07-22T05:35:48;5.1737647;;5.121044;;;;;;;
44530;SPS30;30240;47.418;0.700;2023-07-22T05:38:13;5.1737647;;5.121044;;;;;;;
44530;SPS30;30240;47.418;0.700;2023-07-22T05:40:39;5.6247473;;5.5288014;;;;;;;
44530;SPS30;30240;47.418;0.700;2023-07-22T05:43:03;6.21571;;6.1859083;;;;;;;
44530;SPS30;30240;47.418;0.700;2023-07-22T05:45:28;5.459499;;5.3750076;;;;;;;
44530;SPS30;30240;47.418;0.700;2023-07-22T05:47:53;5.526912;;5.4602847;;;;;;;
44530;SPS30;30240;47.418;0.700;2023-07-22T05:50:18;5.526912;;5.4602847;;;;;;;
44530;SPS30;30240;47.418;0.700;2023-07-22T05:52:43;5.3454833;;5.2942986;;;;;;;
44530;SPS30;30240;47.418;0.700;2023-07-22T05:55:08;4.9569454;;4.903188;;;;;;;
44530;SPS30;30240;47.418;0.700;2023-07-22T05:57:34;5.283699;;5.2491145;;;;;;;
44530;SPS30;30240;47.418;0.700;2023-07-22T05:59:58;5.978327;;5.8814883;;;;;;;
44530;SPS30;30240;47.418;0.700;2023-07-22T06:02:23;5.978327;;5.8814883;;;;;;;
44530;SPS30;30240;47.418;0.700;2023-07-22T06:04:48;5.615054;;5.5007386;;;;;;;
44530;SPS30;30240;47.418;0.700;2023-07-22T06:07:13;6.0777445;;5.963657;;;;;;;
44530;SPS30;30240;47.418;0.700;2023-07-22T06:09:38;5.7542834;;5.6753373;;;;;;;
44530;SPS30;30240;47.418;0.700;2023-07-22T06:12:04;6.6169806;;6.556705;;;;;;;
44530;SPS30;30240;47.418;0.700;2023-07-22T06:14:28;6.6169806;;6.556705;;;;;;;
44530;SPS30;30240;47.418;0.700;2023-07-22T06:16:53;5.3981137;;5.3447814;;;;;;;
44530;SPS30;30240;47.418;0.700;2023-07-22T06:19:18;5.696772;;5.6105723;;;;;;;
44530;SPS30;30240;47.418;0.700;2023-07-22T06:21:43;5.995193;;5.887901;;;;;;;
44530;SPS30;30240;47.418;0.700;2023-07-22T06:24:08;5.1413817;;5.0722766;;;;;;;
44530;SPS30;30240;47.418;0.700;2023-07-22T06:26:33;5.1413817;;5.0722766;;;;;;;
44530;SPS30;30240;47.418;0.700;2023-07-22T06:28:58;5.3207636;;5.2359447;;;;;;;
44530;SPS30;30240;47.418;0.700;2023-07-22T06:31:23;5.066919;;4.9506407;;;;;;;
44530;SPS30;30240;47.418;0.700;2023-07-22T06:33:48;5.934845;;5.8492007;;;;;;;
44530;SPS30;30240;47.418;0.700;2023-07-22T06:36:13;5.587446;;5.5212026;;;;;;;
44530;SPS30;30240;47.418;0.700;2023-07-22T06:38:38;5.587446;;5.5212026;;;;;;;
44530;SPS30;30240;47.418;0.700;2023-07-22T06:41:03;5.019019;;4.958262;;;;;;;
44530;SPS30;30240;47.418;0.700;2023-07-22T06:43:28;5.706661;;5.626655;;;;;;;
44530;SPS30;30240;47.418;0.700;2023-07-22T06:45:53;5.415796;;5.3363624;;;;;;;
44530;SPS30;30240;47.418;0.700;2023-07-22T06:48:18;5.0470495;;4.9934816;;;;;;;
44530;SPS30;30240;47.418;0.700;2023-07-22T06:50:46;5.271828;;5.2060914;;;;;;;
44530;SPS30;30240;47.418;0.700;2023-07-22T06:53:08;5.271828;;5.2060914;;;;;;;
44530;SPS30;30240;47.418;0.700;2023-07-22T06:55:33;5.065293;;4.944657;;;;;;;
44530;SPS30;30240;47.418;0.700;2023-07-22T06:57:58;4.6616325;;4.582058;;;;;;;
44530;SPS30;30240;47.418;0.700;2023-07-22T07:00:23;4.8451524;;4.7519865;;;;;;;
44530;SPS30;30240;47.418;0.700;2023-07-22T07:02:49;5.156756;;5.0832376;;;;;;;
44530;SPS30;30240;47.418;0.700;2023-07-22T07:05:13;5.156756;;5.0832376;;;;;;;
44530;SPS30;30240;47.418;0.700;2023-07-22T07:07:38;4.673944;;4.5853944;;;;;;;
44530;SPS30;30240;47.418;0.700;2023-07-22T07:10:04;5.113444;;5.059892;;;;;;;
44530;SPS30;30240;47.418;0.700;2023-07-22T07:12:28;4.6083097;;4.593651;;;;;;;
44530;SPS30;30240;47.418;0.700;2023-07-22T07:14:53;4.575028;;4.5404325;;;;;;;
44530;SPS30;30240;47.418;0.700;2023-07-22T07:17:18;4.575028;;4.5404325;;;;;;;
44530;SPS30;30240;47.418;0.700;2023-07-22T07:19:43;5.261591;;5.1970706;;;;;;;
44530;SPS30;30240;47.418;0.700;2023-07-22T07:22:08;4.751744;;4.699516;;;;;;;
44530;SPS30;30240;47.418;0.700;2023-07-22T07:24:33;4.5259757;;4.4993796;;;;;;;
44530;SPS30;30240;47.418;0.700;2023-07-22T07:26:58;5.0256143;;4.927818;;;;;;;
44530;SPS30;30240;47.418;0.700;2023-07-22T07:29:23;5.0256143;;4.927818;;;;;;;
44530;SPS30;30240;47.418;0.700;2023-07-22T07:31:48;4.988746;;4.9684744;;;;;;;
44530;SPS30;30240;47.418;0.700;2023-07-22T07:34:13;4.683954;;4.664865;;;;;;;
44530;SPS30;30240;47.418;0.700;2023-07-22T07:36:38;5.188349;;5.1622887;;;;;;;
44530;SPS30;30240;47.418;0.700;2023-07-22T07:39:03;4.5082006;;4.491879;;;;;;;
44530;SPS30;30240;47.418;0.700;2023-07-22T07:41:28;4.5082006;;4.491879;;;;;;;
44530;SPS30;30240;47.418;0.700;2023-07-22T07:43:53;4.0715837;;4.030187;;;;;;;
44530;SPS30;30240;47.418;0.700;2023-07-22T07:46:19;5.050063;;4.948775;;;;;;;
44530;SPS30;30240;47.418;0.700;2023-07-22T07:48:44;4.0291805;;3.972923;;;;;;;
44530;SPS30;30240;47.418;0.700;2023-07-22T07:51:08;5.1712675;;5.104134;;;;;;;
44530;SPS30;30240;47.418;0.700;2023-07-22T07:53:33;5.1712675;;5.104134;;;;;;;
44530;SPS30;30240;47.418;0.700;2023-07-22T07:55:58;3.7766607;;3.7301733;;;;;;;
44530;SPS30;30240;47.418;0.700;2023-07-22T07:58:23;4.2705874;;4.2292547;;;;;;;
44530;SPS30;30240;47.418;0.700;2023-07-22T08:00:48;5.06492;;5.022665;;;;;;;
44530;SPS30;30240;47.418;0.700;2023-07-22T08:03:13;4.560926;;4.524249;;;;;;;
44530;SPS30;30240;47.418;0.700;2023-07-22T08:05:39;4.560926;;4.524249;;;;;;;
44530;SPS30;30240;47.418;0.700;2023-07-22T08:08:03;5.1451206;;5.090753;;;;;;;
44530;SPS30;30240;47.418;0.700;2023-07-22T08:10:28;4.3167963;;4.3010387;;;;;;;
44530;SPS30;30240;47.418;0.700;2023-07-22T08:12:53;4.5447884;;4.5146933;;;;;;;
44530;SPS30;30240;47.418;0.700;2023-07-22T08:15:19;4.3317723;;4.317813;;;;;;;
44530;SPS30;30240;47.418;0.700;2023-07-22T08:17:43;4.7028303;;4.6837997;;;;;;;
44530;SPS30;30240;47.418;0.700;2023-07-22T08:20:08;4.7028303;;4.6837997;;;;;;;
44530;SPS30;30240;47.418;0.700;2023-07-22T08:22:33;3.9450042;;3.929124;;;;;;;
44530;SPS30;30240;47.418;0.700;2023-07-22T08:24:58;4.472808;;4.4386716;;;;;;;
44530;SPS30;30240;47.418;0.700;2023-07-22T08:27:24;4.995191;;4.918502;;;;;;;
44530;SPS30;30240;47.418;0.700;2023-07-22T08:29:48;4.874282;;4.782159;;;;;;;
44530;SPS30;30240;47.418;0.700;2023-07-22T08:32:13;4.874282;;4.782159;;;;;;;
44530;SPS30;30240;47.418;0.700;2023-07-22T08:34:38;4.0342507;;3.9645016;;;;;;;
44530;SPS30;30240;47.418;0.700;2023-07-22T08:37:04;4.345097;;4.3120503;;;;;;;
44530;SPS30;30240;47.418;0.700;2023-07-22T08:39:28;4.1405835;;4.0972223;;;;;;;
44530;SPS30;30240;47.418;0.700;2023-07-22T08:41:53;4.494728;;4.4414;;;;;;;
44530;SPS30;30240;47.418;0.700;2023-07-22T08:44:19;4.494728;;4.4414;;;;;;;
44530;SPS30;30240;47.418;0.700;2023-07-22T08:46:43;4.067965;;3.993082;;;;;;;
44530;SPS30;30240;47.418;0.700;2023-07-22T08:49:08;4.90391;;4.818532;;;;;;;
44530;SPS30;30240;47.418;0.700;2023-07-22T08:51:34;3.9861093;;3.9363966;;;;;;;
44530;SPS30;30240;47.418;0.700;2023-07-22T08:53:59;4.211323;;4.1683826;;;;;;;
44530;SPS30;30240;47.418;0.700;2023-07-22T08:56:23;4.211323;;4.1683826;;;;;;;
44530;SPS30;30240;47.418;0.700;2023-07-22T08:58:48;4.9646897;;4.918167;;;;;;;
44530;SPS30;30240;47.418;0.700;2023-07-22T09:01:14;4.1045775;;4.06049;;;;;;;
44530;SPS30;30240;47.418;0.700;2023-07-22T09:03:38;4.3614364;;4.2833705;;;;;;;
44530;SPS30;30240;47.418;0.700;2023-07-22T09:06:04;4.507615;;4.470126;;;;;;;
44530;SPS30;30240;47.418;0.700;2023-07-22T09:08:28;4.507615;;4.470126;;;;;;;
44530;SPS30;30240;47.418;0.700;2023-07-22T09:10:53;4.043277;;4.00231;;;;;;;
44530;SPS30;30240;47.418;0.700;2023-07-22T09:13:19;3.7387102;;3.6936014;;;;;;;
44530;SPS30;30240;47.418;0.700;2023-07-22T09:15:43;4.3353496;;4.2953086;;;;;;;
44530;SPS30;30240;47.418;0.700;2023-07-22T09:18:09;4.0366125;;3.98529;;;;;;;
44530;SPS30;30240;47.418;0.700;2023-07-22T09:20:33;4.0366125;;3.98529;;;;;;;
44530;SPS30;30240;47.418;0.700;2023-07-22T09:22:59;3.7051704;;3.6730149;;;;;;;
44530;SPS30;30240;47.418;0.700;2023-07-22T09:25:24;3.6825504;;3.6428485;;;;;;;
44530;SPS30;30240;47.418;0.700;2023-07-22T09:27:49;3.4231775;;3.368082;;;;;;;
44530;SPS30;30240;47.418;0.700;2023-07-22T09:30:21;3.8242464;;3.802041;;;;;;;
44530;SPS30;30240;47.418;0.700;2023-07-22T09:32:38;3.8242464;;3.802041;;;;;;;
44530;SPS30;30240;47.418;0.700;2023-07-22T09:35:04;3.536149;;3.5106142;;;;;;;
44530;SPS30;30240;47.418;0.700;2023-07-22T09:37:35;3.53787;;3.4807773;;;;;;;
44530;SPS30;30240;47.418;0.700;2023-07-22T09:39:53;3.6352394;;3.5893476;;;;;;;
44530;SPS30;30240;47.418;0.700;2023-07-22T09:42:23;3.9373064;;3.8841302;;;;;;;
44530;SPS30;30240;47.418;0.700;2023-07-22T09:44:43;3.9373064;;3.8841302;;;;;;;
44530;SPS30;30240;47.418;0.700;2023-07-22T09:47:08;3.8428416;;3.8428416;;;;;;;
44530;SPS30;30240;47.418;0.700;2023-07-22T09:49:34;3.541906;;3.514801;;;;;;;
44530;SPS30;30240;47.418;0.700;2023-07-22T09:49:40;3.541906;;3.514801;;;;;;;
44530;SPS30;30240;47.418;0.700;2023-07-22T09:51:59;3.8633204;;3.8420153;;;;;;;
44530;SPS30;30240;47.418;0.700;2023-07-22T09:54:24;4.17908;;4.147195;;;;;;;
44530;SPS30;30240;47.418;0.700;2023-07-22T09:56:49;3.2317922;;3.2234473;;;;;;;
44530;SPS30;30240;47.418;0.700;2023-07-22T09:59:13;3.2317922;;3.2234473;;;;;;;
44530;SPS30;30240;47.418;0.700;2023-07-22T10:01:39;3.9060717;;3.9020772;;;;;;;
44530;SPS30;30240;47.418;0.700;2023-07-22T10:04:03;3.6271625;;3.6265764;;;;;;;
44530;SPS30;30240;47.418;0.700;2023-07-22T10:06:28;3.4336426;;3.4336426;;;;;;;
44530;SPS30;30240;47.418;0.700;2023-07-22T10:08:54;3.5363975;;3.5363975;;;;;;;
44530;SPS30;30240;47.418;0.700;2023-07-22T10:11:18;3.5363975;;3.5363975;;;;;;;
44530;SPS30;30240;47.418;0.700;2023-07-22T10:13:44;2.8028316;;2.773059;;;;;;;
44530;SPS30;30240;47.418;0.700;2023-07-22T10:16:08;2.7917554;;2.791737;;;;;;;
44530;SPS30;30240;47.418;0.700;2023-07-22T10:18:33;3.5316992;;3.488675;;;;;;;
44530;SPS30;30240;47.418;0.700;2023-07-22T10:20:58;3.413073;;3.386934;;;;;;;
44530;SPS30;30240;47.418;0.700;2023-07-22T10:23:24;3.413073;;3.386934;;;;;;;
44530;SPS30;30240;47.418;0.700;2023-07-22T10:25:49;3.5365493;;3.5365312;;;;;;;
44530;SPS30;30240;47.418;0.700;2023-07-22T10:28:13;4.147317;;4.147317;;;;;;;
44530;SPS30;30240;47.418;0.700;2023-07-22T10:30:39;3.213006;;3.1972537;;;;;;;
44530;SPS30;30240;47.418;0.700;2023-07-22T10:33:03;3.9038434;;3.8742914;;;;;;;
44530;SPS30;30240;47.418;0.700;2023-07-22T10:35:40;3.9038434;;3.8742914;;;;;;;
44530;SPS30;30240;47.418;0.700;2023-07-22T10:37:53;3.1671531;;3.1526866;;;;;;;
44530;SPS30;30240;47.418;0.700;2023-07-22T10:40:19;3.9744043;;3.974309;;;;;;;
44530;SPS30;30240;47.418;0.700;2023-07-22T10:42:52;3.4340072;;3.4340072;;;;;;;
44530;SPS30;30240;47.418;0.700;2023-07-22T10:45:23;3.7602313;;3.7602313;;;;;;;
44530;SPS30;30240;47.418;0.700;2023-07-22T10:47:34;3.7602313;;3.7602313;;;;;;;
44530;SPS30;30240;47.418;0.700;2023-07-22T10:50:05;3.3767314;;3.3767314;;;;;;;
44530;SPS30;30240;47.418;0.700;2023-07-22T10:52:38;3.5495327;;3.548205;;;;;;;
44530;SPS30;30240;47.418;0.700;2023-07-22T10:54:48;3.5951304;;3.5665405;;;;;;;
44530;SPS30;30240;47.418;0.700;2023-07-22T10:57:23;3.4999106;;3.4678588;;;;;;;
44530;SPS30;30240;47.418;0.700;2023-07-22T10:59:38;3.4999106;;3.4678588;;;;;;;
44530;SPS30;30240;47.418;0.700;2023-07-22T10:59:47;3.4999106;;3.4678588;;;;;;;
44530;SPS30;30240;47.418;0.700;2023-07-22T11:02:04;3.9798107;;3.8912394;;;;;;;
44530;SPS30;30240;47.418;0.700;2023-07-22T11:04:28;3.9273448;;3.867165;;;;;;;
44530;SPS30;30240;47.418;0.700;2023-07-22T11:06:54;3.767894;;3.7294948;;;;;;;
44530;SPS30;30240;47.418;0.700;2023-07-22T11:09:37;3.0321844;;3.0321844;;;;;;;
44530;SPS30;30240;47.418;0.700;2023-07-22T11:11:44;3.0321844;;3.0321844;;;;;;;
44530;SPS30;30240;47.418;0.700;2023-07-22T11:14:16;3.98332;;3.9233694;;;;;;;
44530;SPS30;30240;47.418;0.700;2023-07-22T11:16:33;3.6552758;;3.6552758;;;;;;;
44530;SPS30;30240;47.418;0.700;2023-07-22T11:18:58;3.750974;;3.7376826;;;;;;;
44530;SPS30;30240;47.418;0.700;2023-07-22T11:21:23;3.384914;;3.384914;;;;;;;
44530;SPS30;30240;47.418;0.700;2023-07-22T11:23:48;3.114829;;3.114829;;;;;;;
44530;SPS30;30240;47.418;0.700;2023-07-22T11:26:13;3.114829;;3.114829;;;;;;;
44530;SPS30;30240;47.418;0.700;2023-07-22T11:28:38;3.2358308;;3.2358308;;;;;;;
44530;SPS30;30240;47.418;0.700;2023-07-22T11:31:04;3.3717842;;3.3568604;;;;;;;
44530;SPS30;30240;47.418;0.700;2023-07-22T11:33:37;3.327441;;3.3070004;;;;;;;
44530;SPS30;30240;47.418;0.700;2023-07-22T11:35:53;3.4892373;;3.4507587;;;;;;;
44530;SPS30;30240;47.418;0.700;2023-07-22T11:38:18;3.4892373;;3.4507587;;;;;;;
44530;SPS30;30240;47.418;0.700;2023-07-22T11:40:43;3.5656943;;3.5347443;;;;;;;
44530;SPS30;30240;47.418;0.700;2023-07-22T11:43:08;3.122488;;3.104101;;;;;;;
44530;SPS30;30240;47.418;0.700;2023-07-22T11:45:33;3.438845;;3.4387085;;;;;;;
44530;SPS30;30240;47.418;0.700;2023-07-22T11:47:58;4.077173;;4.0455375;;;;;;;
44530;SPS30;30240;47.418;0.700;2023-07-22T11:50:30;4.077173;;4.0455375;;;;;;;
44530;SPS30;30240;47.418;0.700;2023-07-22T11:52:49;3.4439743;;3.4187665;;;;;;;
44530;SPS30;30240;47.418;0.700;2023-07-22T11:55:13;3.0483208;;3.0381415;;;;;;;
44530;SPS30;30240;47.418;0.700;2023-07-22T11:57:38;4.1047096;;4.1043596;;;;;;;
44530;SPS30;30240;47.418;0.700;2023-07-22T12:00:07;3.6018858;;3.6018858;;;;;;;
44530;SPS30;30240;47.418;0.700;2023-07-22T12:02:28;3.6018858;;3.6018858;;;;;;;
44530;SPS30;30240;47.418;0.700;2023-07-22T12:04:55;3.552613;;3.552613;;;;;;;
44530;SPS30;30240;47.418;0.700;2023-07-22T12:07:23;3.7107525;;3.7107525;;;;;;;
44530;SPS30;30240;47.418;0.700;2023-07-22T12:09:47;3.3764925;;3.3609314;;;;;;;
44530;SPS30;30240;47.418;0.700;2023-07-22T12:12:08;3.183111;;3.1403325;;;;;;;
44530;SPS30;30240;47.418;0.700;2023-07-22T12:14:34;3.183111;;3.1403325;;;;;;;